sensor_id;sensor_type;location;lat;lon;timestamp;temperature;humidity
71649;SHT31;70112;45.624;11.760;2024-01-30T00:01:57;1.52;74.71
71649;SHT31;70112;45.624;11.760;2024-01-30T00:13:02;1.54;75.20
71649;SHT31;70112;45.624;11.760;2024-01-30T00:16:02;1.51;75.26
71649;SHT31;70112;45.624;11.760;2024-01-30T00:19:22;1.50;75.39
71649;SHT31;70112;45.624;11.760;2024-01-30T00:25:42;1.49;75.58
71649;SHT31;70112;45.624;11.760;2024-01-30T00:31:14;1.58;75.57
71649;SHT31;70112;45.624;11.760;2024-01-30T00:33:51;1.60;75.33
71649;SHT31;70112;45.624;11.760;2024-01-30T00:36:23;1.59;75.06
71649;SHT31;70112;45.624;11.760;2024-01-30T00:39:20;1.49;74.70
71649;SHT31;70112;45.624;11.760;2024-01-30T00:41:48;1.39;74.69
71649;SHT31;70112;45.624;11.760;2024-01-30T00:44:25;1.34;74.69
71649;SHT31;70112;45.624;11.760;2024-01-30T00:47:00;1.34;74.73
71649;SHT31;70112;45.624;11.760;2024-01-30T00:49:35;1.28;74.55
71649;SHT31;70112;45.624;11.760;2024-01-30T00:52:21;1.15;74.53
71649;SHT31;70112;45.624;11.760;2024-01-30T00:58:56;1.08;74.74
71649;SHT31;70112;45.624;11.760;2024-01-30T01:04:52;1.00;74.80
71649;SHT31;70112;45.624;11.760;2024-01-30T01:10:57;0.89;74.91
71649;SHT31;70112;45.624;11.760;2024-01-30T01:16:48;0.95;74.89
71649;SHT31;70112;45.624;11.760;2024-01-30T01:19:17;0.97;74.80
71649;SHT31;70112;45.624;11.760;2024-01-30T01:21:51;1.01;74.81
71649;SHT31;70112;45.624;11.760;2024-01-30T01:24:41;1.05;74.66
71649;SHT31;70112;45.624;11.760;2024-01-30T01:27:36;0.98;74.45
71649;SHT31;70112;45.624;11.760;2024-01-30T01:30:37;0.92;74.62
71649;SHT31;70112;45.624;11.760;2024-01-30T01:33:53;0.85;74.81
71649;SHT31;70112;45.624;11.760;2024-01-30T01:36:22;0.81;75.03
71649;SHT31;70112;45.624;11.760;2024-01-30T01:39:04;0.83;75.28
71649;SHT31;70112;45.624;11.760;2024-01-30T01:41:30;0.88;75.35
71649;SHT31;70112;45.624;11.760;2024-01-30T01:43:57;0.90;75.36
71649;SHT31;70112;45.624;11.760;2024-01-30T01:46:26;0.88;75.53
71649;SHT31;70112;45.624;11.760;2024-01-30T01:48:53;0.90;75.70
71649;SHT31;70112;45.624;11.760;2024-01-30T01:51:22;0.92;75.84
71649;SHT31;70112;45.624;11.760;2024-01-30T01:53:58;0.97;76.03
71649;SHT31;70112;45.624;11.760;2024-01-30T01:57:17;1.01;76.10
71649;SHT31;70112;45.624;11.760;2024-01-30T02:12:16;0.82;76.35
71649;SHT31;70112;45.624;11.760;2024-01-30T02:14:45;0.75;76.29
71649;SHT31;70112;45.624;11.760;2024-01-30T02:18:01;0.68;76.22
71649;SHT31;70112;45.624;11.760;2024-01-30T02:20:30;0.63;76.19
71649;SHT31;70112;45.624;11.760;2024-01-30T02:26:26;0.56;76.00
71649;SHT31;70112;45.624;11.760;2024-01-30T02:28:54;0.52;76.00
71649;SHT31;70112;45.624;11.760;2024-01-30T02:37:45;0.67;76.12
71649;SHT31;70112;45.624;11.760;2024-01-30T02:44:06;0.74;75.90
71649;SHT31;70112;45.624;11.760;2024-01-30T02:46:58;0.77;75.89
71649;SHT31;70112;45.624;11.760;2024-01-30T02:53:09;0.78;75.80
71649;SHT31;70112;45.624;11.760;2024-01-30T02:59:39;0.74;75.84
71649;SHT31;70112;45.624;11.760;2024-01-30T03:05:42;0.83;75.90
71649;SHT31;70112;45.624;11.760;2024-01-30T03:12:21;0.76;75.73
71649;SHT31;70112;45.624;11.760;2024-01-30T03:15:10;0.72;75.81
71649;SHT31;70112;45.624;11.760;2024-01-30T03:17:58;0.71;75.91
71649;SHT31;70112;45.624;11.760;2024-01-30T03:20:48;0.77;75.94
71649;SHT31;70112;45.624;11.760;2024-01-30T03:26:38;0.69;75.86
71649;SHT31;70112;45.624;11.760;2024-01-30T03:29:17;0.71;75.98
71649;SHT31;70112;45.624;11.760;2024-01-30T03:32:06;0.74;76.00
71649;SHT31;70112;45.624;11.760;2024-01-30T03:34:47;0.75;76.03
71649;SHT31;70112;45.624;11.760;2024-01-30T03:40:29;0.80;75.91
71649;SHT31;70112;45.624;11.760;2024-01-30T03:43:22;0.81;75.98
71649;SHT31;70112;45.624;11.760;2024-01-30T03:46:08;0.81;75.85
71649;SHT31;70112;45.624;11.760;2024-01-30T03:52:36;0.79;75.87
71649;SHT31;70112;45.624;11.760;2024-01-30T03:55:55;0.82;75.74
71649;SHT31;70112;45.624;11.760;2024-01-30T03:59:02;0.84;75.66
71649;SHT31;70112;45.624;11.760;2024-01-30T04:01:59;0.87;75.54
71649;SHT31;70112;45.624;11.760;2024-01-30T04:08:47;0.78;75.27
71649;SHT31;70112;45.624;11.760;2024-01-30T04:12:08;0.69;75.38
71649;SHT31;70112;45.624;11.760;2024-01-30T04:14:54;0.65;75.49
71649;SHT31;70112;45.624;11.760;2024-01-30T04:20:59;0.69;75.61
71649;SHT31;70112;45.624;11.760;2024-01-30T04:31:20;0.73;75.57
71649;SHT31;70112;45.624;11.760;2024-01-30T04:34:49;0.72;75.44
71649;SHT31;70112;45.624;11.760;2024-01-30T04:37:40;0.69;75.40
71649;SHT31;70112;45.624;11.760;2024-01-30T04:40:26;0.70;75.50
71649;SHT31;70112;45.624;11.760;2024-01-30T04:43:20;0.72;75.50
71649;SHT31;70112;45.624;11.760;2024-01-30T04:45:49;0.75;75.50
71649;SHT31;70112;45.624;11.760;2024-01-30T04:48:23;0.76;75.50
71649;SHT31;70112;45.624;11.760;2024-01-30T04:50:51;0.77;75.42
71649;SHT31;70112;45.624;11.760;2024-01-30T04:53:46;0.68;75.20
71649;SHT31;70112;45.624;11.760;2024-01-30T04:56:28;0.60;75.34
71649;SHT31;70112;45.624;11.760;2024-01-30T04:59:01;0.53;75.52
71649;SHT31;70112;45.624;11.760;2024-01-30T05:01:33;0.51;75.60
71649;SHT31;70112;45.624;11.760;2024-01-30T05:06:40;0.58;75.73
71649;SHT31;70112;45.624;11.760;2024-01-30T05:09:56;0.63;75.62
71649;SHT31;70112;45.624;11.760;2024-01-30T05:12:22;0.66;75.62
71649;SHT31;70112;45.624;11.760;2024-01-30T05:14:53;0.72;75.70
71649;SHT31;70112;45.624;11.760;2024-01-30T05:17:22;0.71;75.48
71649;SHT31;70112;45.624;11.760;2024-01-30T05:20:02;0.64;75.46
71649;SHT31;70112;45.624;11.760;2024-01-30T05:22:35;0.60;75.56
71649;SHT31;70112;45.624;11.760;2024-01-30T05:25:35;0.61;75.73
71649;SHT31;70112;45.624;11.760;2024-01-30T05:28:41;0.67;75.72
71649;SHT31;70112;45.624;11.760;2024-01-30T05:31:51;0.66;75.59
71649;SHT31;70112;45.624;11.760;2024-01-30T05:37:25;0.62;75.70
71649;SHT31;70112;45.624;11.760;2024-01-30T05:40:01;0.61;75.65
71649;SHT31;70112;45.624;11.760;2024-01-30T05:49:21;0.63;75.46
71649;SHT31;70112;45.624;11.760;2024-01-30T05:52:08;0.57;75.37
71649;SHT31;70112;45.624;11.760;2024-01-30T05:55:40;0.52;75.35
71649;SHT31;70112;45.624;11.760;2024-01-30T05:58:37;0.54;75.40
71649;SHT31;70112;45.624;11.760;2024-01-30T06:01:21;0.54;75.26
71649;SHT31;70112;45.624;11.760;2024-01-30T06:04:15;0.47;75.23
71649;SHT31;70112;45.624;11.760;2024-01-30T06:06:50;0.40;75.35
71649;SHT31;70112;45.624;11.760;2024-01-30T06:19:28;0.49;75.43
71649;SHT31;70112;45.624;11.760;2024-01-30T06:31:42;0.37;75.05
71649;SHT31;70112;45.624;11.760;2024-01-30T06:34:50;0.27;74.86
71649;SHT31;70112;45.624;11.760;2024-01-30T06:37:58;0.12;74.95
71649;SHT31;70112;45.624;11.760;2024-01-30T06:44:07;0.43;74.46
71649;SHT31;70112;45.624;11.760;2024-01-30T06:47:28;0.47;74.38
71649;SHT31;70112;45.624;11.760;2024-01-30T07:00:02;0.49;74.50
71649;SHT31;70112;45.624;11.760;2024-01-30T07:16:22;0.66;74.45
71649;SHT31;70112;45.624;11.760;2024-01-30T07:19:28;0.73;74.50
71649;SHT31;70112;45.624;11.760;2024-01-30T07:22:11;0.81;74.50
71649;SHT31;70112;45.624;11.760;2024-01-30T07:24:42;0.85;74.50
71649;SHT31;70112;45.624;11.760;2024-01-30T07:30:53;0.86;74.58
71649;SHT31;70112;45.624;11.760;2024-01-30T07:36:55;0.97;74.77
71649;SHT31;70112;45.624;11.760;2024-01-30T07:49:54;1.14;75.27
71649;SHT31;70112;45.624;11.760;2024-01-30T07:52:53;1.20;75.32
71649;SHT31;70112;45.624;11.760;2024-01-30T07:59:48;1.33;75.67
71649;SHT31;70112;45.624;11.760;2024-01-30T08:05:23;1.48;75.85
71649;SHT31;70112;45.624;11.760;2024-01-30T08:08:04;1.54;75.90
71649;SHT31;70112;45.624;11.760;2024-01-30T08:10:51;1.61;75.99
71649;SHT31;70112;45.624;11.760;2024-01-30T08:13:54;1.69;76.08
71649;SHT31;70112;45.624;11.760;2024-01-30T08:19:45;1.89;76.27
71649;SHT31;70112;45.624;11.760;2024-01-30T08:29:02;2.23;76.31
71649;SHT31;70112;45.624;11.760;2024-01-30T08:31:37;2.13;76.90
71649;SHT31;70112;45.624;11.760;2024-01-30T08:37:20;2.37;77.02
71649;SHT31;70112;45.624;11.760;2024-01-30T08:40:31;2.52;76.82
71649;SHT31;70112;45.624;11.760;2024-01-30T08:43:02;2.73;76.62
71649;SHT31;70112;45.624;11.760;2024-01-30T08:45:41;3.59;75.85
71649;SHT31;70112;45.624;11.760;2024-01-30T08:48:35;5.40;74.15
71649;SHT31;70112;45.624;11.760;2024-01-30T08:51:22;6.70;72.65
71649;SHT31;70112;45.624;11.760;2024-01-30T08:53:50;7.29;71.64
71649;SHT31;70112;45.624;11.760;2024-01-30T08:56:17;7.82;70.57
71649;SHT31;70112;45.624;11.760;2024-01-30T08:58:49;8.67;69.01
71649;SHT31;70112;45.624;11.760;2024-01-30T09:01:15;9.01;68.14
71649;SHT31;70112;45.624;11.760;2024-01-30T09:03:40;9.72;66.79
71649;SHT31;70112;45.624;11.760;2024-01-30T09:06:13;11.32;64.58
71649;SHT31;70112;45.624;11.760;2024-01-30T09:08:39;13.29;61.58
71649;SHT31;70112;45.624;11.760;2024-01-30T09:11:16;15.20;58.99
71649;SHT31;70112;45.624;11.760;2024-01-30T09:13:42;16.85;56.08
71649;SHT31;70112;45.624;11.760;2024-01-30T09:16:08;18.41;53.29
71649;SHT31;70112;45.624;11.760;2024-01-30T09:18:34;19.78;50.88
71649;SHT31;70112;45.624;11.760;2024-01-30T09:20:59;20.93;48.60
71649;SHT31;70112;45.624;11.760;2024-01-30T09:23:26;21.88;46.43
71649;SHT31;70112;45.624;11.760;2024-01-30T09:25:52;22.68;44.58
71649;SHT31;70112;45.624;11.760;2024-01-30T09:28:18;23.40;43.00
71649;SHT31;70112;45.624;11.760;2024-01-30T09:30:44;23.85;41.81
71649;SHT31;70112;45.624;11.760;2024-01-30T09:33:09;24.43;40.20
71649;SHT31;70112;45.624;11.760;2024-01-30T09:35:38;24.94;39.02
71649;SHT31;70112;45.624;11.760;2024-01-30T09:38:04;25.38;37.91
71649;SHT31;70112;45.624;11.760;2024-01-30T09:40:29;25.83;37.03
71649;SHT31;70112;45.624;11.760;2024-01-30T09:42:55;26.23;36.04
71649;SHT31;70112;45.624;11.760;2024-01-30T09:45:24;26.57;35.42
71649;SHT31;70112;45.624;11.760;2024-01-30T09:47:51;26.77;34.03
71649;SHT31;70112;45.624;11.760;2024-01-30T09:50:18;26.73;33.98
71649;SHT31;70112;45.624;11.760;2024-01-30T09:52:44;26.90;33.41
71649;SHT31;70112;45.624;11.760;2024-01-30T09:55:11;26.19;32.96
71649;SHT31;70112;45.624;11.760;2024-01-30T09:57:38;23.84;34.18
71649;SHT31;70112;45.624;11.760;2024-01-30T10:00:05;21.81;35.31
71649;SHT31;70112;45.624;11.760;2024-01-30T10:02:34;20.05;37.00
71649;SHT31;70112;45.624;11.760;2024-01-30T10:05:01;18.67;38.51
71649;SHT31;70112;45.624;11.760;2024-01-30T10:07:27;17.56;39.54
71649;SHT31;70112;45.624;11.760;2024-01-30T10:09:53;16.67;40.51
71649;SHT31;70112;45.624;11.760;2024-01-30T10:12:21;15.98;41.39
71649;SHT31;70112;45.624;11.760;2024-01-30T10:14:48;15.35;42.36
71649;SHT31;70112;45.624;11.760;2024-01-30T10:17:13;14.74;43.06
71649;SHT31;70112;45.624;11.760;2024-01-30T10:19:39;14.18;44.07
71649;SHT31;70112;45.624;11.760;2024-01-30T10:22:09;13.68;45.31
71649;SHT31;70112;45.624;11.760;2024-01-30T10:24:35;13.20;46.25
71649;SHT31;70112;45.624;11.760;2024-01-30T10:27:05;12.85;47.02
71649;SHT31;70112;45.624;11.760;2024-01-30T10:29:38;12.59;47.61
71649;SHT31;70112;45.624;11.760;2024-01-30T10:32:10;12.31;48.28
71649;SHT31;70112;45.624;11.760;2024-01-30T10:34:52;12.07;49.13
71649;SHT31;70112;45.624;11.760;2024-01-30T10:37:26;11.89;50.03
71649;SHT31;70112;45.624;11.760;2024-01-30T10:39:53;11.69;50.58
71649;SHT31;70112;45.624;11.760;2024-01-30T10:42:23;11.59;50.81
71649;SHT31;70112;45.624;11.760;2024-01-30T10:44:56;11.45;51.29
71649;SHT31;70112;45.624;11.760;2024-01-30T10:47:29;11.33;51.69
71649;SHT31;70112;45.624;11.760;2024-01-30T10:49:55;11.20;51.80
71649;SHT31;70112;45.624;11.760;2024-01-30T10:52:25;11.12;51.89
71649;SHT31;70112;45.624;11.760;2024-01-30T10:54:51;11.05;52.37
71649;SHT31;70112;45.624;11.760;2024-01-30T10:57:28;10.99;52.59
71649;SHT31;70112;45.624;11.760;2024-01-30T11:00:00;10.95;52.83
71649;SHT31;70112;45.624;11.760;2024-01-30T11:02:38;10.92;53.11
71649;SHT31;70112;45.624;11.760;2024-01-30T11:05:06;10.86;53.31
71649;SHT31;70112;45.624;11.760;2024-01-30T11:07:35;10.83;53.51
71649;SHT31;70112;45.624;11.760;2024-01-30T11:10:04;10.77;53.72
71649;SHT31;70112;45.624;11.760;2024-01-30T11:12:39;10.77;53.96
71649;SHT31;70112;45.624;11.760;2024-01-30T11:15:37;10.74;53.93
71649;SHT31;70112;45.624;11.760;2024-01-30T11:18:03;10.74;53.91
71649;SHT31;70112;45.624;11.760;2024-01-30T11:20:29;10.74;54.06
71649;SHT31;70112;45.624;11.760;2024-01-30T11:23:12;10.73;54.18
71649;SHT31;70112;45.624;11.760;2024-01-30T11:25:37;10.69;54.40
71649;SHT31;70112;45.624;11.760;2024-01-30T11:28:13;10.68;54.62
71649;SHT31;70112;45.624;11.760;2024-01-30T11:30:44;10.68;54.89
71649;SHT31;70112;45.624;11.760;2024-01-30T11:33:38;10.66;54.80
71649;SHT31;70112;45.624;11.760;2024-01-30T11:36:07;10.63;54.76
71649;SHT31;70112;45.624;11.760;2024-01-30T12:32:25;10.76;55.49
71649;SHT31;70112;45.624;11.760;2024-01-30T12:34:54;10.71;55.72
71649;SHT31;70112;45.624;11.760;2024-01-30T12:37:21;10.64;56.03
71649;SHT31;70112;45.624;11.760;2024-01-30T12:39:49;10.59;56.35
71649;SHT31;70112;45.624;11.760;2024-01-30T12:42:19;10.56;56.51
71649;SHT31;70112;45.624;11.760;2024-01-30T12:44:49;10.53;56.91
71649;SHT31;70112;45.624;11.760;2024-01-30T12:47:15;10.51;57.09
71649;SHT31;70112;45.624;11.760;2024-01-30T12:49:42;10.49;57.13
71649;SHT31;70112;45.624;11.760;2024-01-30T12:52:09;10.46;57.35
71649;SHT31;70112;45.624;11.760;2024-01-30T12:54:37;10.44;57.54
71649;SHT31;70112;45.624;11.760;2024-01-30T12:57:03;10.45;57.55
71649;SHT31;70112;45.624;11.760;2024-01-30T12:59:33;10.48;57.52
71649;SHT31;70112;45.624;11.760;2024-01-30T13:02:00;10.52;57.67
71649;SHT31;70112;45.624;11.760;2024-01-30T13:04:28;10.56;57.53
71649;SHT31;70112;45.624;11.760;2024-01-30T13:06:59;10.57;57.44
71649;SHT31;70112;45.624;11.760;2024-01-30T13:09:29;10.60;57.08
71649;SHT31;70112;45.624;11.760;2024-01-30T13:11:58;10.62;57.23
71649;SHT31;70112;45.624;11.760;2024-01-30T13:14:30;10.66;57.41
71649;SHT31;70112;45.624;11.760;2024-01-30T13:16:55;10.66;57.61
71649;SHT31;70112;45.624;11.760;2024-01-30T13:19:21;10.66;57.96
71649;SHT31;70112;45.624;11.760;2024-01-30T13:21:49;10.69;58.11
71649;SHT31;70112;45.624;11.760;2024-01-30T13:24:15;10.72;57.85
71649;SHT31;70112;45.624;11.760;2024-01-30T13:26:42;10.74;57.76
71649;SHT31;70112;45.624;11.760;2024-01-30T13:29:08;10.75;57.79
71649;SHT31;70112;45.624;11.760;2024-01-30T13:31:43;10.77;57.72
71649;SHT31;70112;45.624;11.760;2024-01-30T13:34:11;10.76;57.51
71649;SHT31;70112;45.624;11.760;2024-01-30T13:36:37;10.73;57.67
71649;SHT31;70112;45.624;11.760;2024-01-30T13:39:03;10.74;57.71
71649;SHT31;70112;45.624;11.760;2024-01-30T13:41:35;10.71;57.88
71649;SHT31;70112;45.624;11.760;2024-01-30T13:44:01;10.68;58.07
71649;SHT31;70112;45.624;11.760;2024-01-30T13:46:28;10.67;58.24
71649;SHT31;70112;45.624;11.760;2024-01-30T13:48:55;10.69;58.12
71649;SHT31;70112;45.624;11.760;2024-01-30T13:51:21;10.69;58.05
71649;SHT31;70112;45.624;11.760;2024-01-30T13:53:47;10.70;58.04
71649;SHT31;70112;45.624;11.760;2024-01-30T13:56:14;10.72;57.96
71649;SHT31;70112;45.624;11.760;2024-01-30T13:58:41;10.74;57.92
71649;SHT31;70112;45.624;11.760;2024-01-30T14:01:07;10.74;57.83
71649;SHT31;70112;45.624;11.760;2024-01-30T14:03:42;10.73;57.72
71649;SHT31;70112;45.624;11.760;2024-01-30T14:06:11;10.74;57.14
71649;SHT31;70112;45.624;11.760;2024-01-30T14:08:37;10.75;56.99
71649;SHT31;70112;45.624;11.760;2024-01-30T14:11:06;10.76;57.16
71649;SHT31;70112;45.624;11.760;2024-01-30T14:13:34;10.77;57.49
71649;SHT31;70112;45.624;11.760;2024-01-30T14:16:00;10.74;57.78
71649;SHT31;70112;45.624;11.760;2024-01-30T14:18:32;10.73;57.85
71649;SHT31;70112;45.624;11.760;2024-01-30T14:21:02;10.73;58.02
71649;SHT31;70112;45.624;11.760;2024-01-30T14:23:31;10.73;58.09
71649;SHT31;70112;45.624;11.760;2024-01-30T14:26:03;10.74;58.00
71649;SHT31;70112;45.624;11.760;2024-01-30T14:28:37;10.74;57.76
71649;SHT31;70112;45.624;11.760;2024-01-30T14:31:10;10.75;57.71
71649;SHT31;70112;45.624;11.760;2024-01-30T14:33:36;10.76;57.71
71649;SHT31;70112;45.624;11.760;2024-01-30T14:36:04;10.76;57.68
71649;SHT31;70112;45.624;11.760;2024-01-30T14:38:30;10.76;57.70
71649;SHT31;70112;45.624;11.760;2024-01-30T14:40:56;10.74;57.69
71649;SHT31;70112;45.624;11.760;2024-01-30T14:43:24;10.71;57.80
71649;SHT31;70112;45.624;11.760;2024-01-30T14:45:53;10.67;57.78
71649;SHT31;70112;45.624;11.760;2024-01-30T14:48:24;10.64;57.16
71649;SHT31;70112;45.624;11.760;2024-01-30T14:50:53;10.61;56.80
71649;SHT31;70112;45.624;11.760;2024-01-30T14:53:21;10.60;56.96
71649;SHT31;70112;45.624;11.760;2024-01-30T14:55:47;10.58;57.10
71649;SHT31;70112;45.624;11.760;2024-01-30T14:58:13;10.53;57.14
71649;SHT31;70112;45.624;11.760;2024-01-30T15:00:44;10.52;57.06
71649;SHT31;70112;45.624;11.760;2024-01-30T15:03:09;10.50;56.97
71649;SHT31;70112;45.624;11.760;2024-01-30T15:05:35;10.49;56.95
71649;SHT31;70112;45.624;11.760;2024-01-30T15:08:01;10.48;57.03
71649;SHT31;70112;45.624;11.760;2024-01-30T15:10:27;10.44;57.08
71649;SHT31;70112;45.624;11.760;2024-01-30T15:12:52;10.43;57.21
71649;SHT31;70112;45.624;11.760;2024-01-30T15:15:18;10.43;57.29
71649;SHT31;70112;45.624;11.760;2024-01-30T15:17:43;10.42;57.54
71649;SHT31;70112;45.624;11.760;2024-01-30T15:20:12;10.38;57.76
71649;SHT31;70112;45.624;11.760;2024-01-30T15:22:41;10.36;57.79
71649;SHT31;70112;45.624;11.760;2024-01-30T15:25:07;10.33;57.72
71649;SHT31;70112;45.624;11.760;2024-01-30T15:27:33;10.27;57.78
71649;SHT31;70112;45.624;11.760;2024-01-30T15:29:59;10.22;57.89
71649;SHT31;70112;45.624;11.760;2024-01-30T15:32:24;10.16;57.94
71649;SHT31;70112;45.624;11.760;2024-01-30T15:34:50;10.08;58.04
71649;SHT31;70112;45.624;11.760;2024-01-30T15:37:25;10.01;58.32
71649;SHT31;70112;45.624;11.760;2024-01-30T15:39:52;9.93;58.72
71649;SHT31;70112;45.624;11.760;2024-01-30T15:42:23;9.87;58.96
71649;SHT31;70112;45.624;11.760;2024-01-30T15:44:49;9.82;59.07
71649;SHT31;70112;45.624;11.760;2024-01-30T15:47:14;9.77;59.34
71649;SHT31;70112;45.624;11.760;2024-01-30T15:49:40;9.71;59.68
71649;SHT31;70112;45.624;11.760;2024-01-30T15:52:06;9.65;59.90
71649;SHT31;70112;45.624;11.760;2024-01-30T15:54:39;9.60;60.08
71649;SHT31;70112;45.624;11.760;2024-01-30T15:57:10;9.53;60.28
71649;SHT31;70112;45.624;11.760;2024-01-30T15:59:36;9.44;60.49
71649;SHT31;70112;45.624;11.760;2024-01-30T16:02:02;9.37;60.73
71649;SHT31;70112;45.624;11.760;2024-01-30T16:04:30;9.28;60.88
71649;SHT31;70112;45.624;11.760;2024-01-30T16:07:02;9.18;61.03
71649;SHT31;70112;45.624;11.760;2024-01-30T16:09:37;9.10;61.30
71649;SHT31;70112;45.624;11.760;2024-01-30T16:12:02;9.02;61.52
71649;SHT31;70112;45.624;11.760;2024-01-30T16:14:51;8.90;61.71
71649;SHT31;70112;45.624;11.760;2024-01-30T16:17:26;8.80;61.88
71649;SHT31;70112;45.624;11.760;2024-01-30T16:19:52;8.76;62.19
71649;SHT31;70112;45.624;11.760;2024-01-30T16:22:30;8.74;62.47
71649;SHT31;70112;45.624;11.760;2024-01-30T16:24:57;8.68;62.59
71649;SHT31;70112;45.624;11.760;2024-01-30T16:27:30;8.56;62.62
71649;SHT31;70112;45.624;11.760;2024-01-30T16:30:07;8.44;62.61
71649;SHT31;70112;45.624;11.760;2024-01-30T16:32:34;8.31;62.70
71649;SHT31;70112;45.624;11.760;2024-01-30T16:34:59;8.23;63.03
71649;SHT31;70112;45.624;11.760;2024-01-30T16:37:29;8.18;63.19
71649;SHT31;70112;45.624;11.760;2024-01-30T16:39:55;8.13;63.27
71649;SHT31;70112;45.624;11.760;2024-01-30T16:43:02;8.01;63.37
71649;SHT31;70112;45.624;11.760;2024-01-30T16:45:27;7.89;63.62
71649;SHT31;70112;45.624;11.760;2024-01-30T16:47:53;7.86;63.82
71649;SHT31;70112;45.624;11.760;2024-01-30T16:50:19;7.84;63.93
71649;SHT31;70112;45.624;11.760;2024-01-30T16:55:32;7.76;64.11
71649;SHT31;70112;45.624;11.760;2024-01-30T16:58:00;7.74;64.18
71649;SHT31;70112;45.624;11.760;2024-01-30T17:00:26;7.72;64.27
71649;SHT31;70112;45.624;11.760;2024-01-30T17:03:13;7.71;64.30
71649;SHT31;70112;45.624;11.760;2024-01-30T17:05:41;7.67;64.31
71649;SHT31;70112;45.624;11.760;2024-01-30T17:08:08;7.64;64.31
71649;SHT31;70112;45.624;11.760;2024-01-30T17:13:19;7.53;64.44
71649;SHT31;70112;45.624;11.760;2024-01-30T17:15:50;7.35;64.56
71649;SHT31;70112;45.624;11.760;2024-01-30T17:18:36;7.26;64.85
71649;SHT31;70112;45.624;11.760;2024-01-30T17:21:26;7.22;64.92
71649;SHT31;70112;45.624;11.760;2024-01-30T17:24:12;7.14;65.00
71649;SHT31;70112;45.624;11.760;2024-01-30T17:26:40;7.05;65.20
71649;SHT31;70112;45.624;11.760;2024-01-30T17:29:08;7.04;65.42
71649;SHT31;70112;45.624;11.760;2024-01-30T17:31:43;7.05;65.52
71649;SHT31;70112;45.624;11.760;2024-01-30T17:34:18;6.98;65.51
71649;SHT31;70112;45.624;11.760;2024-01-30T17:36:44;6.83;65.68
71649;SHT31;70112;45.624;11.760;2024-01-30T17:39:09;6.74;65.94
71649;SHT31;70112;45.624;11.760;2024-01-30T17:41:40;6.75;66.07
71649;SHT31;70112;45.624;11.760;2024-01-30T17:44:08;6.75;66.11
71649;SHT31;70112;45.624;11.760;2024-01-30T17:46:50;6.78;66.24
71649;SHT31;70112;45.624;11.760;2024-01-30T17:49:19;6.80;66.37
71649;SHT31;70112;45.624;11.760;2024-01-30T17:51:57;6.79;66.37
71649;SHT31;70112;45.624;11.760;2024-01-30T17:54:25;6.70;66.16
71649;SHT31;70112;45.624;11.760;2024-01-30T17:56:53;6.54;66.16
71649;SHT31;70112;45.624;11.760;2024-01-30T17:59:21;6.42;66.40
71649;SHT31;70112;45.624;11.760;2024-01-30T18:01:50;6.38;66.69
71649;SHT31;70112;45.624;11.760;2024-01-30T18:04:19;6.39;66.80
71649;SHT31;70112;45.624;11.760;2024-01-30T18:06:54;6.39;66.69
71649;SHT31;70112;45.624;11.760;2024-01-30T18:09:21;6.26;66.51
71649;SHT31;70112;45.624;11.760;2024-01-30T18:11:56;6.10;66.57
71649;SHT31;70112;45.624;11.760;2024-01-30T18:14:22;5.98;66.70
71649;SHT31;70112;45.624;11.760;2024-01-30T18:17:19;5.92;66.95
71649;SHT31;70112;45.624;11.760;2024-01-30T18:22:52;5.95;67.46
71649;SHT31;70112;45.624;11.760;2024-01-30T18:25:17;5.87;67.44
71649;SHT31;70112;45.624;11.760;2024-01-30T18:28:04;5.81;67.74
71649;SHT31;70112;45.624;11.760;2024-01-30T18:30:30;5.86;67.87
71649;SHT31;70112;45.624;11.760;2024-01-30T18:33:02;5.85;67.82
71649;SHT31;70112;45.624;11.760;2024-01-30T18:35:38;5.74;67.69
71649;SHT31;70112;45.624;11.760;2024-01-30T18:38:04;5.65;67.79
71649;SHT31;70112;45.624;11.760;2024-01-30T18:40:40;5.59;67.88
71649;SHT31;70112;45.624;11.760;2024-01-30T18:43:06;5.60;68.01
71649;SHT31;70112;45.624;11.760;2024-01-30T18:45:40;5.59;68.20
71649;SHT31;70112;45.624;11.760;2024-01-30T18:48:09;5.64;68.20
71649;SHT31;70112;45.624;11.760;2024-01-30T18:50:37;5.69;68.18
71649;SHT31;70112;45.624;11.760;2024-01-30T18:55:50;5.74;68.10
71649;SHT31;70112;45.624;11.760;2024-01-30T18:58:56;5.74;68.10
71649;SHT31;70112;45.624;11.760;2024-01-30T19:01:20;5.72;68.10
71649;SHT31;70112;45.624;11.760;2024-01-30T19:06:35;5.52;67.67
71649;SHT31;70112;45.624;11.760;2024-01-30T19:09:19;5.32;68.01
71649;SHT31;70112;45.624;11.760;2024-01-30T19:11:58;5.25;68.34
71649;SHT31;70112;45.624;11.760;2024-01-30T19:14:44;5.26;68.35
71649;SHT31;70112;45.624;11.760;2024-01-30T19:17:22;5.18;68.26
71649;SHT31;70112;45.624;11.760;2024-01-30T19:19:49;5.10;68.45
71649;SHT31;70112;45.624;11.760;2024-01-30T19:22:18;5.10;68.69
71649;SHT31;70112;45.624;11.760;2024-01-30T19:24:46;5.12;68.69
71649;SHT31;70112;45.624;11.760;2024-01-30T19:27:21;5.13;68.65
71649;SHT31;70112;45.624;11.760;2024-01-30T19:29:46;5.15;68.60
71649;SHT31;70112;45.624;11.760;2024-01-30T19:32:20;5.17;68.50
71649;SHT31;70112;45.624;11.760;2024-01-30T19:34:53;5.11;68.36
71649;SHT31;70112;45.624;11.760;2024-01-30T19:37:39;4.91;68.58
71649;SHT31;70112;45.624;11.760;2024-01-30T19:40:17;4.80;69.01
71649;SHT31;70112;45.624;11.760;2024-01-30T19:42:53;4.72;68.90
71649;SHT31;70112;45.624;11.760;2024-01-30T19:48:10;4.58;69.24
71649;SHT31;70112;45.624;11.760;2024-01-30T19:50:48;4.67;69.30
71649;SHT31;70112;45.624;11.760;2024-01-30T19:53:24;4.77;69.26
71649;SHT31;70112;45.624;11.760;2024-01-30T19:55:49;4.83;69.20
71649;SHT31;70112;45.624;11.760;2024-01-30T19:58:30;4.87;69.15
71649;SHT31;70112;45.624;11.760;2024-01-30T20:03:59;4.89;68.92
71649;SHT31;70112;45.624;11.760;2024-01-30T20:06:25;4.78;68.79
71649;SHT31;70112;45.624;11.760;2024-01-30T20:08:56;4.65;68.93
71649;SHT31;70112;45.624;11.760;2024-01-30T20:11:30;4.55;69.11
71649;SHT31;70112;45.624;11.760;2024-01-30T20:14:00;4.51;69.34
71649;SHT31;70112;45.624;11.760;2024-01-30T20:16:34;4.56;69.50
71649;SHT31;70112;45.624;11.760;2024-01-30T20:19:09;4.63;69.43
71649;SHT31;70112;45.624;11.760;2024-01-30T20:21:35;4.58;69.14
71649;SHT31;70112;45.624;11.760;2024-01-30T20:24:12;4.52;69.28
71649;SHT31;70112;45.624;11.760;2024-01-30T20:26:40;4.55;69.40
71649;SHT31;70112;45.624;11.760;2024-01-30T20:29:12;4.60;69.40
71649;SHT31;70112;45.624;11.760;2024-01-30T20:31:38;4.63;69.41
71649;SHT31;70112;45.624;11.760;2024-01-30T20:34:24;4.60;69.20
71649;SHT31;70112;45.624;11.760;2024-01-30T20:36:57;4.51;69.22
71649;SHT31;70112;45.624;11.760;2024-01-30T20:39:24;4.48;69.50